createdAt,value
2018-05-01T00:00:07.916Z,10.40
2018-05-01T00:02:36.004Z,10.50
2018-05-01T00:05:03.692Z,10.30
2018-05-01T00:07:32.108Z,10.40
2018-05-01T00:09:59.759Z,10.80
2018-05-01T00:12:27.367Z,10.90
2018-05-01T00:14:55.027Z,10.60
2018-05-01T00:17:22.644Z,10.90
2018-05-01T00:19:50.295Z,10.80
2018-05-01T00:22:17.959Z,10.70
2018-05-01T00:24:45.820Z,10.80
2018-05-01T00:27:14.168Z,10.80
2018-05-01T00:29:42.580Z,10.90
2018-05-01T00:32:10.251Z,10.90
2018-05-01T00:34:37.855Z,10.60
2018-05-01T00:37:05.506Z,11.30
2018-05-01T00:39:33.119Z,11.10
2018-05-01T00:42:00.773Z,11.20
2018-05-01T00:44:28.379Z,11.40
2018-05-01T00:46:56.024Z,11.20
2018-05-01T00:49:23.782Z,11.30
2018-05-01T00:51:51.539Z,11.20
2018-05-01T00:54:19.126Z,11.50
2018-05-01T00:56:47.320Z,11.40
2018-05-01T00:59:15.754Z,11.40
2018-05-01T01:01:43.446Z,11.30
2018-05-01T01:04:11.099Z,11.60
2018-05-01T01:06:38.754Z,11.50
2018-05-01T01:09:06.412Z,11.60
2018-05-01T01:11:34.220Z,11.80
2018-05-01T01:14:02.630Z,11.60
2018-05-01T01:16:30.261Z,12.00
2018-05-01T01:18:57.919Z,11.60
2018-05-01T01:21:25.584Z,11.50
2018-05-01T01:23:53.219Z,11.60
2018-05-01T01:26:20.904Z,11.60
2018-05-01T01:28:48.538Z,11.80
2018-05-01T01:31:17.280Z,11.50
2018-05-01T01:33:44.951Z,11.90
2018-05-01T01:36:12.071Z,11.60
2018-05-01T01:38:39.205Z,11.90
2018-05-01T01:41:06.406Z,11.80
2018-05-01T01:43:33.532Z,11.50
2018-05-01T01:46:00.704Z,11.60
2018-05-01T01:48:27.831Z,11.50
2018-05-01T01:50:54.991Z,11.60
2018-05-01T01:53:22.116Z,11.90
2018-05-01T01:55:49.283Z,11.60
2018-05-01T01:58:16.415Z,11.60
2018-05-01T02:00:43.584Z,11.10
2018-05-01T02:03:10.708Z,11.60
2018-05-01T02:05:37.887Z,11.60
2018-05-01T02:08:05.028Z,11.50
2018-05-01T02:10:32.150Z,11.60
2018-05-01T02:12:59.303Z,11.50
2018-05-01T02:15:26.467Z,11.40
2018-05-01T02:17:53.588Z,11.50
2018-05-01T02:20:20.759Z,11.60
2018-05-01T02:22:47.880Z,11.50
2018-05-01T02:25:15.002Z,11.50
2018-05-01T02:27:42.220Z,11.60
2018-05-01T02:30:09.383Z,11.40
2018-05-01T02:32:36.500Z,11.30
2018-05-01T02:35:03.667Z,11.20
2018-05-01T02:37:31.340Z,11.10
2018-05-01T02:39:58.663Z,11.20
2018-05-01T02:42:25.801Z,11.30
2018-05-01T02:44:52.972Z,11.00
2018-05-01T02:47:20.324Z,10.90
2018-05-01T02:49:47.491Z,10.60
2018-05-01T02:52:14.622Z,10.60
2018-05-01T02:54:41.758Z,10.70
2018-05-01T02:57:08.925Z,10.70
2018-05-01T02:59:36.059Z,10.60
2018-05-01T03:02:03.215Z,10.70
2018-05-01T03:04:30.340Z,10.80
2018-05-01T03:06:57.511Z,10.80
2018-05-01T03:09:24.676Z,10.70
2018-05-01T03:11:52.418Z,10.80
2018-05-01T03:14:20.207Z,10.70
2018-05-01T03:16:47.367Z,10.70
2018-05-01T03:19:15.283Z,10.40
2018-05-01T03:21:42.559Z,10.50
2018-05-01T03:24:09.793Z,10.30
2018-05-01T03:26:37.667Z,10.20
2018-05-01T03:29:04.828Z,10.50
2018-05-01T03:31:32.218Z,10.30
2018-05-01T03:33:59.383Z,10.20
2018-05-01T03:36:26.544Z,10.20
2018-05-01T03:38:53.706Z,10.10
2018-05-01T03:41:21.388Z,10.30
2018-05-01T03:43:48.515Z,10.30
2018-05-01T03:46:15.674Z,10.30
2018-05-01T03:48:42.804Z,10.30
2018-05-01T03:51:10.962Z,10.30
2018-05-01T03:53:38.079Z,10.20
2018-05-01T03:56:05.272Z,10.30
2018-05-01T03:58:32.449Z,10.10
2018-05-01T04:00:59.609Z,10.10
2018-05-01T04:03:26.743Z,10.40
2018-05-01T04:05:54.734Z,10.30
2018-05-01T04:08:22.148Z,10.10
2018-05-01T04:10:49.289Z,10.10
2018-05-01T04:13:16.424Z,9.80
2018-05-01T04:15:43.597Z,10.10
2018-05-01T04:18:11.797Z,10.00
2018-05-01T04:20:38.992Z,9.80
2018-05-01T04:23:06.111Z,9.80
2018-05-01T04:25:33.263Z,9.90
2018-05-01T04:28:00.996Z,10.00
2018-05-01T04:30:28.159Z,10.10
2018-05-01T04:32:55.881Z,10.00
2018-05-01T04:35:23.550Z,10.00
2018-05-01T04:37:50.699Z,9.80
2018-05-01T04:40:18.131Z,9.30
2018-05-01T04:42:45.315Z,9.70
2018-05-01T04:45:12.500Z,9.70
2018-05-01T04:47:39.629Z,9.50
2018-05-01T04:50:07.557Z,9.40
2018-05-01T04:52:34.717Z,9.40
2018-05-01T04:55:01.831Z,9.40
2018-05-01T04:57:28.991Z,9.60
2018-05-01T04:59:56.111Z,9.10
2018-05-01T05:02:23.308Z,9.60
2018-05-01T05:04:51.333Z,9.20
2018-05-01T05:07:18.548Z,8.90
2018-05-01T05:09:45.680Z,9.30
2018-05-01T05:12:12.830Z,9.30
2018-05-01T05:14:40.018Z,8.90
2018-05-01T05:17:08.866Z,9.00
2018-05-01T05:19:36.040Z,9.10
2018-05-01T05:22:03.225Z,9.20
2018-05-01T05:24:30.391Z,9.20
2018-05-01T05:26:57.551Z,9.10
2018-05-01T05:29:24.698Z,9.00
2018-05-01T05:31:51.869Z,9.20
2018-05-01T05:34:19.040Z,9.00
2018-05-01T05:36:46.927Z,9.00
2018-05-01T05:39:14.088Z,9.00
2018-05-01T05:41:41.202Z,9.10
2018-05-01T05:44:08.367Z,9.20
2018-05-01T05:46:35.535Z,8.80
2018-05-01T05:49:02.707Z,8.60
2018-05-01T05:51:29.863Z,8.80
2018-05-01T05:53:57.025Z,8.70
2018-05-01T05:56:25.074Z,8.50
2018-05-01T05:58:54.104Z,8.50
2018-05-01T06:01:21.272Z,8.50
2018-05-01T06:03:48.451Z,8.80
2018-05-01T06:06:15.837Z,8.50
2018-05-01T06:08:42.963Z,9.20
2018-05-01T06:11:10.133Z,8.80
2018-05-01T06:13:37.270Z,8.80
2018-05-01T06:16:04.533Z,8.70
2018-05-01T06:18:31.651Z,8.80
2018-05-01T06:20:59.049Z,8.50
2018-05-01T06:23:26.217Z,8.60
2018-05-01T06:25:53.956Z,8.90
2018-05-01T06:28:21.122Z,8.50
2018-05-01T06:30:48.338Z,8.50
2018-05-01T06:33:15.504Z,8.50
2018-05-01T06:35:42.629Z,8.70
2018-05-01T06:38:10.803Z,8.30
2018-05-01T06:40:37.927Z,8.40
2018-05-01T06:43:05.058Z,8.10
2018-05-01T06:45:32.222Z,8.10
2018-05-01T06:48:00.374Z,8.10
2018-05-01T06:50:27.508Z,8.10
2018-05-01T06:52:54.667Z,8.20
2018-05-01T06:55:21.789Z,8.20
2018-05-01T06:57:49.072Z,8.20
2018-05-01T07:00:16.149Z,8.20
2018-05-01T07:02:43.303Z,8.10
2018-05-01T07:05:10.432Z,8.10
2018-05-01T07:07:37.720Z,7.80
2018-05-01T07:10:06.040Z,7.90
2018-05-01T07:12:33.998Z,7.80
2018-05-01T07:15:02.133Z,7.80
2018-05-01T07:17:31.223Z,7.90
2018-05-01T07:19:58.962Z,8.20
2018-05-01T07:22:28.045Z,7.80
2018-05-01T07:24:55.539Z,7.80
2018-05-01T07:27:25.884Z,7.80
2018-05-01T07:29:53.091Z,7.90
2018-05-01T07:32:21.581Z,7.80
2018-05-01T07:34:48.946Z,7.60
2018-05-01T07:37:16.408Z,7.80
2018-05-01T07:39:43.594Z,7.70
2018-05-01T07:42:10.724Z,7.50
2018-05-01T07:44:38.657Z,7.40
2018-05-01T07:47:06.459Z,7.40
2018-05-01T07:49:33.651Z,7.40
2018-05-01T07:52:01.902Z,7.20
2018-05-01T07:54:29.316Z,7.10
2018-05-01T07:56:56.478Z,7.20
2018-05-01T07:59:24.363Z,7.10
2018-05-01T08:01:51.661Z,7.10
2018-05-01T08:04:18.785Z,7.20
2018-05-01T08:06:46.264Z,7.10
2018-05-01T08:09:15.181Z,7.20
2018-05-01T08:11:43.153Z,7.30
2018-05-01T08:14:10.327Z,7.10
2018-05-01T08:16:37.664Z,7.20
2018-05-01T08:19:04.833Z,7.20
2018-05-01T08:21:33.530Z,7.30
2018-05-01T08:24:01.500Z,7.20
2018-05-01T08:26:28.643Z,7.20
2018-05-01T08:28:55.998Z,7.30
2018-05-01T08:31:23.165Z,7.40
2018-05-01T08:33:52.052Z,7.30
2018-05-01T08:36:19.210Z,7.20
2018-05-01T08:38:46.469Z,7.40
2018-05-01T08:41:16.217Z,7.10
2018-05-01T08:43:43.534Z,7.20
2018-05-01T08:46:10.703Z,7.20
2018-05-01T08:48:37.881Z,7.20
2018-05-01T08:51:06.007Z,7.20
2018-05-01T08:53:34.839Z,7.20
2018-05-01T08:56:02.532Z,7.30
2018-05-01T08:58:29.697Z,7.10
2018-05-01T09:00:57.183Z,7.10
2018-05-01T09:03:25.560Z,7.20
2018-05-01T09:05:53.567Z,6.90
2018-05-01T09:08:20.695Z,7.20
2018-05-01T09:10:50.612Z,7.20
2018-05-01T09:13:18.012Z,7.30
2018-05-01T09:15:45.892Z,7.30
2018-05-01T09:18:13.271Z,7.10
2018-05-01T09:20:40.429Z,7.20
2018-05-01T09:23:08.390Z,7.10
2018-05-01T09:25:36.561Z,7.30
2018-05-01T09:28:03.672Z,7.10
2018-05-01T09:30:31.427Z,7.10
2018-05-01T09:33:00.494Z,7.10
2018-05-01T09:35:29.836Z,7.20
2018-05-01T09:40:48.085Z,7.20
2018-05-01T09:43:15.669Z,7.20
2018-05-01T09:45:43.328Z,7.10
2018-05-01T09:48:11.971Z,7.20
2018-05-01T09:50:39.174Z,7.40
2018-05-01T09:53:07.404Z,7.20
2018-05-01T09:55:35.042Z,7.30
2018-05-01T09:58:03.441Z,7.10
2018-05-01T10:00:31.102Z,7.40
2018-05-01T10:02:59.070Z,7.10
2018-05-01T10:05:27.067Z,7.20
2018-05-01T10:07:57.522Z,7.10
2018-05-01T10:10:26.679Z,7.20
2018-05-01T10:13:00.006Z,6.90
2018-05-01T10:15:33.095Z,7.20
2018-05-01T10:18:01.075Z,7.30
2018-05-01T10:20:29.056Z,7.20
2018-05-01T10:22:56.681Z,7.10
2018-05-01T10:25:24.520Z,7.20
2018-05-01T10:27:52.673Z,7.10
2018-05-01T10:30:22.102Z,7.40
2018-05-01T10:32:50.863Z,7.20
2018-05-01T10:35:18.853Z,7.60
2018-05-01T10:37:47.007Z,7.10
2018-05-01T10:40:16.835Z,7.20
2018-05-01T10:42:44.727Z,7.10
2018-05-01T10:45:13.493Z,7.20
2018-05-01T10:47:41.903Z,7.30
2018-05-01T10:50:11.724Z,7.40
2018-05-01T10:52:39.528Z,7.30
2018-05-01T10:55:07.894Z,7.20
2018-05-01T10:57:35.972Z,7.20
2018-05-01T11:00:08.504Z,7.50
2018-05-01T11:02:37.026Z,7.60
2018-05-01T11:05:05.025Z,7.50
2018-05-01T11:07:32.854Z,7.50
2018-05-01T11:10:02.503Z,7.70
2018-05-01T11:12:30.752Z,7.70
2018-05-01T11:14:58.448Z,7.80
2018-05-01T11:17:26.122Z,7.50
2018-05-01T11:19:59.969Z,7.50
2018-05-01T11:22:28.721Z,7.50
2018-05-01T11:24:56.387Z,7.90
2018-05-01T11:27:24.890Z,7.80
2018-05-01T11:29:52.550Z,7.80
2018-05-01T11:32:20.256Z,7.90
2018-05-01T11:34:49.199Z,7.80
2018-05-01T11:37:16.871Z,7.90
2018-05-01T11:39:44.523Z,8.10
2018-05-01T11:42:12.185Z,7.80
2018-05-01T11:44:39.843Z,7.90
2018-05-01T11:47:07.462Z,7.80
2018-05-01T11:49:35.146Z,7.90
2018-05-01T11:52:02.752Z,7.80
2018-05-01T11:54:30.422Z,8.10
2018-05-01T11:56:58.848Z,8.20
2018-05-01T11:59:27.199Z,7.90
2018-05-01T12:01:54.854Z,8.40
2018-05-01T12:04:22.475Z,8.10
2018-05-01T12:06:50.532Z,8.10
2018-05-01T12:09:18.205Z,8.10
2018-05-01T12:11:45.835Z,8.10
2018-05-01T12:14:13.576Z,8.50
2018-05-01T12:16:41.713Z,8.20
2018-05-01T12:19:09.339Z,8.20
2018-05-01T12:21:36.999Z,8.20
2018-05-01T12:24:06.199Z,8.20
2018-05-01T12:26:33.853Z,8.20
2018-05-01T12:29:01.466Z,8.20
2018-05-01T12:31:30.652Z,8.20
2018-05-01T12:33:59.547Z,8.70
2018-05-01T12:36:28.328Z,8.40
2018-05-01T12:38:55.936Z,8.30
2018-05-01T12:41:23.604Z,8.40
2018-05-01T12:43:53.212Z,8.80
2018-05-01T12:46:20.823Z,8.70
2018-05-01T12:48:49.247Z,8.70
2018-05-01T12:51:16.917Z,8.70
2018-05-01T12:53:48.132Z,8.40
2018-05-01T12:56:21.444Z,8.50
2018-05-01T12:58:50.914Z,8.50
2018-05-01T13:01:25.417Z,8.90
2018-05-01T13:03:55.232Z,8.90
2018-05-01T13:06:23.864Z,8.70
2018-05-01T13:08:53.177Z,8.80
2018-05-01T13:11:22.071Z,8.50
2018-05-01T13:13:51.835Z,8.90
2018-05-01T13:16:19.451Z,8.50
2018-05-01T13:18:54.518Z,8.50
2018-05-01T13:21:23.044Z,8.60
2018-05-01T13:23:50.670Z,8.50
2018-05-01T13:26:21.804Z,8.50
2018-05-01T13:28:52.389Z,8.50
2018-05-01T13:31:22.714Z,8.50
2018-05-01T13:33:50.351Z,8.50
2018-05-01T13:36:18.469Z,8.60
2018-05-01T13:38:46.888Z,8.50
2018-05-01T13:41:15.176Z,8.70
2018-05-01T13:43:42.783Z,8.50
2018-05-01T13:46:16.353Z,8.60
2018-05-01T13:48:44.405Z,8.60
2018-05-01T13:51:13.194Z,8.90
2018-05-01T13:53:40.896Z,8.80
2018-05-01T13:56:08.538Z,8.80
2018-05-01T13:58:36.190Z,8.60
2018-05-01T14:01:03.852Z,8.50
2018-05-01T14:03:31.469Z,8.30
2018-05-01T14:05:59.168Z,8.40
2018-05-01T14:08:26.778Z,8.10
2018-05-01T14:10:54.393Z,8.50
2018-05-01T14:13:22.135Z,8.20
2018-05-01T14:15:49.809Z,8.50
2018-05-01T14:18:17.490Z,8.30
2018-05-01T14:20:45.140Z,8.40
2018-05-01T14:23:12.791Z,8.80
2018-05-01T14:25:40.476Z,8.30
2018-05-01T14:28:08.794Z,8.40
2018-05-01T14:30:36.443Z,8.50
2018-05-01T14:33:04.582Z,8.50
2018-05-01T14:35:32.227Z,8.50
2018-05-01T14:37:59.848Z,8.50
2018-05-01T14:40:27.519Z,8.80
2018-05-01T14:42:55.132Z,8.80
2018-05-01T14:45:22.755Z,8.50
2018-05-01T14:47:50.446Z,8.50
2018-05-01T14:50:19.628Z,8.70
2018-05-01T14:52:48.204Z,8.70
2018-05-01T14:55:16.598Z,8.20
2018-05-01T14:57:44.247Z,8.70
2018-05-01T15:00:11.897Z,8.20
2018-05-01T15:02:39.552Z,8.20
2018-05-01T15:05:07.304Z,8.20
2018-05-01T15:07:34.971Z,8.20
2018-05-01T15:10:02.653Z,8.30
2018-05-01T15:12:30.653Z,8.60
2018-05-01T15:14:58.290Z,8.20
2018-05-01T15:17:26.292Z,7.90
2018-05-01T15:19:53.963Z,8.00
2018-05-01T15:22:21.588Z,8.50
2018-05-01T15:24:50.019Z,8.00
2018-05-01T15:27:17.636Z,8.30
2018-05-01T15:29:45.288Z,8.10
2018-05-01T15:32:13.925Z,7.90
2018-05-01T15:34:41.687Z,8.10
2018-05-01T15:37:09.343Z,8.20
2018-05-01T15:39:37.006Z,8.00
2018-05-01T15:42:04.619Z,7.90
2018-05-01T15:44:33.408Z,7.80
2018-05-01T15:47:01.341Z,8.00
2018-05-01T15:49:28.962Z,8.30
2018-05-01T15:51:56.675Z,8.10
2018-05-01T15:54:25.776Z,8.10
2018-05-01T15:56:53.433Z,8.20
2018-05-01T15:59:21.804Z,8.20
2018-05-01T16:01:50.229Z,8.10
2018-05-01T16:04:17.873Z,8.60
2018-05-01T16:06:45.612Z,8.30
2018-05-01T16:09:13.239Z,8.40
2018-05-01T16:11:40.846Z,8.10
2018-05-01T16:14:08.603Z,8.10
2018-05-01T16:16:36.223Z,8.50
2018-05-01T16:19:03.846Z,8.20
2018-05-01T16:21:31.695Z,8.20
2018-05-01T16:24:00.202Z,8.00
2018-05-01T16:26:27.761Z,8.30
2018-05-01T16:28:55.414Z,8.40
2018-05-01T16:31:23.032Z,8.10
2018-05-01T16:33:50.796Z,8.10
2018-05-01T16:36:18.725Z,7.80
2018-05-01T16:38:47.104Z,8.10
2018-05-01T16:41:14.759Z,8.40
2018-05-01T16:43:42.367Z,8.20
2018-05-01T16:46:10.791Z,8.00
2018-05-01T16:48:38.467Z,8.30
2018-05-01T16:51:06.111Z,8.00
2018-05-01T16:53:33.729Z,8.50
2018-05-01T16:56:01.404Z,7.90
2018-05-01T16:58:29.035Z,8.20
2018-05-01T17:00:56.688Z,8.00
2018-05-01T17:03:24.686Z,8.60
2018-05-01T17:05:52.336Z,8.20
2018-05-01T17:08:21.080Z,8.50
2018-05-01T17:10:48.719Z,8.20
2018-05-01T17:13:16.367Z,8.40
2018-05-01T17:15:44.021Z,8.40
2018-05-01T17:18:12.215Z,8.60
2018-05-01T17:20:40.080Z,8.60
2018-05-01T17:23:07.739Z,8.50
2018-05-01T17:25:35.395Z,8.50
2018-05-01T17:28:03.103Z,8.50
2018-05-01T17:30:30.702Z,8.20
2018-05-01T17:32:58.406Z,8.50
2018-05-01T17:35:26.015Z,8.30
2018-05-01T17:37:53.998Z,8.40
2018-05-01T17:40:21.655Z,8.80
2018-05-01T17:42:49.735Z,8.30
2018-05-01T17:45:17.440Z,8.70
2018-05-01T17:47:45.048Z,8.50
2018-05-01T17:50:15.914Z,8.90
2018-05-01T17:52:43.790Z,8.80
2018-05-01T17:55:11.560Z,8.50
2018-05-01T17:57:44.119Z,8.50
2018-05-01T18:00:12.105Z,8.50
2018-05-01T18:02:40.532Z,8.60
2018-05-01T18:05:08.175Z,9.00
2018-05-01T18:07:36.739Z,9.20
2018-05-01T18:10:04.557Z,8.70
2018-05-01T18:12:34.395Z,8.80
2018-05-01T18:15:02.672Z,8.90
2018-05-01T18:17:30.498Z,8.80
2018-05-01T18:19:58.760Z,9.10
2018-05-01T18:22:26.579Z,8.60
2018-05-01T18:24:57.265Z,8.90
2018-05-01T18:27:32.271Z,8.50
2018-05-01T18:30:04.594Z,8.80
2018-05-01T18:32:39.444Z,8.50
2018-05-01T18:35:13.746Z,8.50
2018-05-01T18:37:41.643Z,8.50
2018-05-01T18:40:09.918Z,8.50
2018-05-01T18:42:37.579Z,8.50
2018-05-01T18:45:05.229Z,8.60
2018-05-01T18:47:32.883Z,8.50
2018-05-01T18:50:00.826Z,8.70
2018-05-01T18:52:28.594Z,8.50
2018-05-01T18:54:56.259Z,8.20
2018-05-01T18:57:23.956Z,8.20
2018-05-01T18:59:53.568Z,8.20
2018-05-01T19:02:21.274Z,8.20
2018-05-01T19:04:49.115Z,8.10
2018-05-01T19:07:16.773Z,8.10
2018-05-01T19:09:45.045Z,8.10
2018-05-01T19:12:12.715Z,8.10
2018-05-01T19:14:40.364Z,8.10
2018-05-01T19:17:08.539Z,8.20
2018-05-01T19:19:36.156Z,8.10
2018-05-01T19:22:04.108Z,7.80
2018-05-01T19:24:31.711Z,7.90
2018-05-01T19:26:59.367Z,7.80
2018-05-01T19:29:28.039Z,7.80
2018-05-01T19:31:56.683Z,7.80
2018-05-01T19:34:24.401Z,7.50
2018-05-01T19:36:52.023Z,7.80
2018-05-01T19:39:20.403Z,7.50
2018-05-01T19:41:48.056Z,7.40
2018-05-01T19:44:15.668Z,7.40
2018-05-01T19:46:43.327Z,7.40
2018-05-01T19:49:10.947Z,7.60
2018-05-01T19:51:38.606Z,7.30
2018-05-01T19:54:07.015Z,7.10
2018-05-01T19:56:34.690Z,7.10
2018-05-01T19:59:02.319Z,7.20
2018-05-01T20:01:29.937Z,7.20
2018-05-01T20:03:57.619Z,7.20
2018-05-01T20:06:25.232Z,7.20
2018-05-01T20:08:52.929Z,7.30
2018-05-01T20:11:21.297Z,7.10
2018-05-01T20:13:49.682Z,6.90
2018-05-01T20:16:17.295Z,7.10
2018-05-01T20:18:44.949Z,7.10
2018-05-01T20:21:12.561Z,7.10
2018-05-01T20:23:40.361Z,7.10
2018-05-01T20:26:08.735Z,7.10
2018-05-01T20:28:37.153Z,7.10
2018-05-01T20:31:05.531Z,6.90
2018-05-01T20:33:33.143Z,7.30
2018-05-01T20:36:01.572Z,7.10
2018-05-01T20:38:29.186Z,6.90
2018-05-01T20:40:57.604Z,6.90
2018-05-01T20:43:25.216Z,6.80
2018-05-01T20:45:52.872Z,6.80
2018-05-01T20:48:21.830Z,6.80
2018-05-01T20:50:49.446Z,6.60
2018-05-01T20:53:17.769Z,6.80
2018-05-01T20:55:46.055Z,6.90
2018-05-01T20:58:13.669Z,6.80
2018-05-01T21:00:41.569Z,6.80
2018-05-01T21:03:09.183Z,6.30
2018-05-01T21:05:36.836Z,6.50
2018-05-01T21:08:04.484Z,6.60
2018-05-01T21:10:32.143Z,6.40
2018-05-01T21:12:59.764Z,6.50
2018-05-01T21:15:27.386Z,6.50
2018-05-01T21:17:55.044Z,6.10
2018-05-01T21:20:22.650Z,6.10
2018-05-01T21:22:50.711Z,6.20
2018-05-01T21:25:19.056Z,6.20
2018-05-01T21:27:46.662Z,6.20
2018-05-01T21:30:14.332Z,6.10
2018-05-01T21:32:41.955Z,6.10
2018-05-01T21:35:10.192Z,6.10
2018-05-01T21:37:38.617Z,5.90
2018-05-01T21:40:06.729Z,6.00
2018-05-01T21:42:35.215Z,5.90
2018-05-01T21:45:03.143Z,6.10
2018-05-01T21:47:30.760Z,6.10
2018-05-01T21:49:58.439Z,6.10
2018-05-01T21:52:26.090Z,6.10
2018-05-01T21:54:53.739Z,6.10
2018-05-01T21:57:21.449Z,6.10
2018-05-01T21:59:49.817Z,6.00
2018-05-01T22:02:17.423Z,5.90
2018-05-01T22:04:45.898Z,5.80
2018-05-01T22:07:13.543Z,5.70
2018-05-01T22:09:41.167Z,5.60
2018-05-01T22:12:08.815Z,5.40
2018-05-01T22:14:36.420Z,5.80
2018-05-01T22:17:04.084Z,5.70
2018-05-01T22:19:31.823Z,5.60
2018-05-01T22:21:59.468Z,5.80
2018-05-01T22:24:27.071Z,5.70
2018-05-01T22:26:55.482Z,5.80
2018-05-01T22:29:23.185Z,5.60
2018-05-01T22:31:50.844Z,5.80
2018-05-01T22:34:18.455Z,5.70
2018-05-01T22:36:46.099Z,5.30
2018-05-01T22:39:14.515Z,5.80
2018-05-01T22:41:42.167Z,5.60
2018-05-01T22:44:09.818Z,5.80
2018-05-01T22:46:37.460Z,5.50
2018-05-01T22:49:05.739Z,5.30
2018-05-01T22:51:33.378Z,5.80
2018-05-01T22:54:01.035Z,5.40
2018-05-01T22:56:28.649Z,5.50
2018-05-01T22:58:56.263Z,5.30
2018-05-01T23:01:23.903Z,5.50
2018-05-01T23:03:51.514Z,5.50
2018-05-01T23:06:19.175Z,5.30
2018-05-01T23:08:46.786Z,5.50
2018-05-01T23:11:14.392Z,5.30
2018-05-01T23:13:42.072Z,5.50
2018-05-01T23:16:12.276Z,5.30
2018-05-01T23:18:39.931Z,5.40
2018-05-01T23:21:08.301Z,5.20
2018-05-01T23:23:37.176Z,5.20
2018-05-01T23:26:04.792Z,5.20
2018-05-01T23:28:32.431Z,5.00
2018-05-01T23:31:00.043Z,5.10
2018-05-01T23:33:27.700Z,5.20
2018-05-01T23:35:55.303Z,5.00
2018-05-01T23:38:22.951Z,5.10
2018-05-01T23:40:51.360Z,4.70
2018-05-01T23:43:18.970Z,5.10
2018-05-01T23:45:46.629Z,4.70
2018-05-01T23:48:14.247Z,5.20
2018-05-01T23:50:41.851Z,4.80
2018-05-01T23:53:09.496Z,4.90
2018-05-01T23:55:37.164Z,4.80
2018-05-01T23:58:04.762Z,4.80
